Latest Weather Observations for Wudinna Airport

IDS60801

Issued at 6:21 am CDT Friday 21 January 2022 (issued every 10 minutes, with the page automatically refreshed every 10 minutes)

About weather observations | Map of weather stations | Latest weather observations for SA | Other Formats
Station Details ID: 018083 Name: WUDINNA AERO Lat: -33.04 Lon: 135.45 Height: 86.4 m
Data from the previous 72 hours. | See also: Recent months at Wudinna Airport
Date/Time
CDT
Temp
°C
App
Temp
°C
Dew
Point
°C
Rel
Hum
%
Delta-T
°C
Wind Press
QNH
hPa
Press
MSL
hPa
Rain since
9am
mm
Dir  Spd
km/h
Gust
km/h
Spd
kts
Gust
kts
21/06:00am 22.0 25.6 19.7 87 1.5 CALM 0 0 0 0 1013.3 1012.9 2.0
21/05:30am 22.1 25.6 19.6 86 1.6 CALM 0 0 0 0 1013.1 1012.7 2.0
21/05:00am 22.1 24.9 19.6 86 1.6 W 4 7 2 4 1013.2 1012.8 2.0
21/04:30am 22.3 24.5 19.7 85 1.7 W 7 9 4 5 1013.4 1013.0 2.0
21/04:00am 22.7 24.0 20.2 86 1.6 WNW 13 17 7 9 1013.6 1013.2 2.0
21/03:30am 22.8 25.0 20.3 86 1.6 WNW 9 13 5 7 1013.8 1013.4 2.0
21/03:00am 22.9 24.2 20.2 85 1.7 NW 13 15 7 8 1013.9 1013.5 2.0
21/02:30am 23.2 26.3 20.3 84 1.9 WNW 4 15 2 8 1014.0 1013.6 2.0
21/02:00am 23.5 26.2 20.2 82 2.1 WNW 6 7 3 4 1014.1 1013.7 2.0
21/01:30am 23.7 26.3 20.4 82 2.1 W 7 9 4 5 1014.4 1014.0 2.0
21/01:00am 23.8 26.7 20.7 83 2.0 WNW 6 9 3 5 1014.5 1014.1 2.0
21/12:30am 23.8 26.4 20.5 82 2.2 SW 7 9 4 5 1014.6 1014.2 2.0
21/12:00am 24.0 27.6 20.5 81 2.3 SW 2 11 1 6 1014.8 1014.4 2.0
 
Date/Time
CDT
Temp
°C
App
Temp
°C
Dew
Point
°C
Rel
Hum
%
Delta-T
°C
Wind Press
QNH
hPa
Press
MSL
hPa
Rain since
9am
mm
Dir  Spd
km/h
Gust
km/h
Spd
kts
Gust
kts
20/11:30pm 24.2 26.8 20.5 80 2.4 WSW 7 9 4 5 1014.9 1014.5 2.0
20/11:00pm 24.3 27.1 20.8 81 2.3 WNW 7 11 4 6 1015.1 1014.7 2.0
20/10:30pm 24.5 26.8 21.4 83 2.1 WNW 11 15 6 8 1015.4 1015.0 2.0
20/10:00pm 24.7 26.8 21.0 80 2.4 NW 11 15 6 8 1015.1 1014.7 1.8
20/09:30pm 26.3 28.4 20.2 69 4.0 S 9 13 5 7 1014.9 1014.5 1.8
20/09:00pm 26.0 28.1 21.0 74 3.3 W 11 17 6 9 1013.7 1013.3 1.8
20/08:30pm 26.5 28.0 20.6 70 3.9 SSW 13 19 7 10 1013.4 1013.0 1.8
20/08:00pm 27.6 30.2 21.2 68 4.3 WSW 9 11 5 6 1013.1 1012.7 1.8
20/07:30pm 27.1 28.2 21.2 70 3.9 SW 17 20 9 11 1013.1 1012.7 1.8
20/07:00pm 27.2 26.0 17.4 55 6.2 NNW 20 35 11 19 1013.0 1012.6 1.8
20/06:54pm 26.5 25.5 17.6 58 5.6 N 19 33 10 18 1012.9 1012.5 1.2
20/06:30pm 32.8 32.1 14.4 33 11.3 ENE 11 15 6 8 1012.6 1012.2 0.0
20/06:00pm 33.3 32.8 14.8 32 11.5 ENE 11 17 6 9 1012.7 1012.3 0.0
20/05:30pm 33.0 33.2 14.6 33 11.3 ESE 7 13 4 7 1013.0 1012.6 0.0
20/05:00pm 32.8 32.1 15.3 34 10.9 ENE 13 22 7 12 1013.3 1012.9 0.0
20/04:30pm 32.5 32.1 15.1 35 10.8 NE 11 19 6 10 1013.5 1013.1 0.0
20/04:00pm 31.9 30.3 15.0 36 10.4 NE 17 24 9 13 1013.9 1013.5 0.0
20/03:30pm 32.1 30.1 15.6 37 10.3 NE 20 32 11 17 1014.1 1013.7 0.0
20/03:00pm 32.1 30.0 15.1 35 10.5 ENE 20 30 11 16 1014.3 1013.9 0.0
20/02:30pm 32.4 30.6 15.4 36 10.6 NE 19 28 10 15 1014.4 1014.0 0.0
20/02:00pm 32.0 30.3 14.6 34 10.7 NNE 17 26 9 14 1014.6 1014.2 0.0
20/01:30pm 32.0 30.6 14.6 34 10.7 NE 15 24 8 13 1014.8 1014.4 0.0
20/01:00pm 33.0 31.0 15.0 33 11.2 NE 19 32 10 17 1015.0 1014.6 0.0
20/12:30pm 31.4 29.8 15.0 37 10.1 E 17 32 9 17 1015.4 1015.0 0.0
20/12:00pm 31.4 29.0 14.5 35 10.3 ENE 20 32 11 17 1015.7 1015.3 0.0
20/11:30am 31.3 29.8 15.3 38 9.9 E 17 26 9 14 1015.9 1015.5 0.0
20/11:00am 29.6 27.5 15.3 41 8.8 ENE 20 32 11 17 1016.2 1015.8 0.0
20/10:30am 28.9 25.9 14.7 42 8.6 E 24 33 13 18 1016.4 1016.0 0.0
20/10:00am 27.4 25.0 14.4 45 7.8 E 20 30 11 16 1016.7 1016.3 0.0
20/09:30am 25.8 23.7 13.6 46 7.2 E 17 32 9 17 1016.9 1016.5 0.0
20/09:00am 23.5 22.1 13.4 53 5.9 ESE 13 19 7 10 1016.8 1016.4 0.0
20/08:30am 21.5 20.9 13.4 60 4.7 ESE 9 13 5 7 1016.7 1016.3 0.0
20/08:00am 20.5 20.9 13.7 65 3.9 SSE 4 7 2 4 1016.3 1015.9 0.0
20/07:30am 19.6 20.8 13.8 69 3.3 CALM 0 2 0 1 1016.0 1015.6 0.0
20/07:00am 18.5 19.6 13.6 73 2.8 CALM 0 4 0 2 1015.9 1015.5 0.0
20/06:30am 17.7 18.6 13.0 74 2.6 CALM 0 0 0 0 1015.9 1015.5 0.0
20/06:00am 17.3 17.8 12.8 75 2.5 SE 2 7 1 4 1015.7 1015.3 0.0
20/05:30am 17.5 17.0 12.8 74 2.6 SSE 7 9 4 5 1015.7 1015.3 0.0
20/05:00am 17.9 17.1 12.8 72 2.9 S 9 11 5 6 1015.7 1015.3 0.0
20/04:30am 18.6 18.1 12.8 69 3.3 S 7 9 4 5 1015.6 1015.2 0.0
20/04:00am 19.3 17.8 13.0 67 3.6 SSE 13 17 7 9 1015.4 1015.0 0.0
20/03:30am 19.4 18.6 12.9 66 3.7 SSE 9 13 5 7 1015.5 1015.1 0.0
20/03:00am 19.1 18.2 12.6 66 3.7 SSE 9 13 5 7 1015.5 1015.1 0.0
20/02:30am 18.8 17.7 12.1 65 3.7 SSE 9 11 5 6 1015.7 1015.3 0.0
20/02:00am 18.8 17.4 12.3 66 3.6 SE 11 15 6 8 1016.0 1015.6 0.0
20/01:30am 18.5 17.4 12.0 66 3.6 SE 9 15 5 8 1016.4 1016.0 0.0
20/01:00am 18.8 17.7 11.9 64 3.8 SSE 9 13 5 7 1016.7 1016.3 0.0
20/12:30am 19.0 17.0 11.6 62 4.1 SSE 13 17 7 9 1016.9 1016.5 0.0
20/12:00am 19.3 16.7 10.8 58 4.6 SE 15 22 8 12 1017.1 1016.7 0.0
 
Date/Time
CDT
Temp
°C
App
Temp
°C
Dew
Point
°C
Rel
Hum
%
Delta-T
°C
Wind Press
QNH
hPa
Press
MSL
hPa
Rain since
9am
mm
Dir  Spd
km/h
Gust
km/h
Spd
kts
Gust
kts
19/11:30pm 19.8 16.7 10.2 54 5.2 SE 17 24 9 13 1017.2 1016.8 0.0
19/11:00pm 20.3 16.5 9.8 51 5.6 SE 20 26 11 14 1017.0 1016.6 0.0
19/10:30pm 21.0 17.0 8.9 46 6.4 SE 20 28 11 15 1016.9 1016.5 0.0
19/10:00pm 21.7 16.9 8.9 44 6.8 SE 24 32 13 17 1016.4 1016.0 0.0
19/09:30pm 22.4 17.8 8.1 40 7.5 SE 22 35 12 19 1015.9 1015.5 0.0
19/09:00pm 23.3 18.3 8.2 38 8.0 SE 24 37 13 20 1015.5 1015.1 0.0
19/08:30pm 24.2 19.1 7.8 35 8.7 SSE 24 35 13 19 1015.4 1015.0 0.0
19/08:00pm 25.4 20.0 8.0 33 9.3 SSE 26 41 14 22 1015.0 1014.6 0.0
19/07:30pm 26.3 20.5 7.8 31 9.9 SSE 28 48 15 26 1014.9 1014.5 0.0
19/07:29pm 26.3 20.5 7.8 31 9.9 SSE 28 48 15 26 1014.9 1014.5 0.0
19/07:00pm 27.3 21.6 8.2 30 10.4 SSE 28 43 15 23 1014.7 1014.3 0.0
19/06:30pm 27.7 21.6 8.1 29 10.6 SSE 30 43 16 23 1014.4 1014.0 0.0
19/06:00pm 28.6 23.7 8.3 28 11.1 SE 24 35 13 19 1014.2 1013.8 0.0
19/05:30pm 28.4 23.4 8.1 28 11.1 SSE 24 37 13 20 1014.1 1013.7 0.0
19/05:00pm 28.5 22.8 8.2 28 11.1 SE 28 44 15 24 1014.2 1013.8 0.0
19/04:30pm 29.6 24.7 8.6 27 11.6 SE 24 37 13 20 1014.4 1014.0 0.0
19/04:00pm 28.7 23.7 7.9 27 11.3 SE 24 37 13 20 1014.7 1014.3 0.0
19/03:30pm 29.3 24.4 8.4 27 11.5 SE 24 39 13 21 1015.0 1014.6 0.0
19/03:00pm 28.8 24.7 7.9 27 11.4 SE 19 32 10 17 1015.3 1014.9 0.0
19/02:30pm 28.3 23.5 7.5 27 11.2 SSE 22 32 12 17 1015.7 1015.3 0.0
19/02:00pm 28.0 23.3 7.8 28 10.9 SE 22 33 12 18 1016.2 1015.8 0.0
19/01:30pm 27.7 23.1 8.1 29 10.6 SE 22 39 12 21 1016.5 1016.1 0.0
19/01:00pm 26.4 21.4 7.9 31 9.9 SE 24 35 13 19 1016.7 1016.3 0.0
19/12:30pm 27.0 22.2 8.9 32 9.9 SSE 24 35 13 19 1017.0 1016.6 0.0
19/12:11pm 26.4 20.9 9.3 34 9.4 SSE 28 46 15 25 1017.1 1016.7 0.0
19/12:00pm 25.7 20.6 9.1 35 9.1 SE 26 37 14 20 1017.3 1016.9 0.0
19/11:30am 25.2 20.3 9.9 38 8.4 SE 26 39 14 21 1017.6 1017.2 0.0
19/11:00am 24.5 19.7 10.4 41 7.8 SE 26 37 14 20 1017.8 1017.4 0.0
19/10:30am 23.1 18.3 10.2 44 7.1 SE 26 37 14 20 1017.9 1017.5 0.0
19/10:00am 22.8 18.3 11.5 49 6.3 SE 26 39 14 21 1018.0 1017.6 0.0
19/09:30am 21.6 17.5 11.6 53 5.6 SE 24 41 13 22 1018.0 1017.6 0.0
19/09:00am 20.0 16.2 12.5 62 4.2 SE 24 37 13 20 1017.9 1017.5 0.0
19/08:30am 17.5 15.0 12.2 71 2.9 SSE 17 26 9 14 1017.9 1017.5 0.0
19/08:00am 16.0 14.1 11.8 76 2.3 SSE 13 20 7 11 1017.7 1017.3 0.0
19/07:30am 13.8 12.4 10.8 82 1.6 S 9 13 5 7 1017.4 1017.0 0.0
19/07:00am 12.3 10.2 9.9 85 1.2 S 11 13 6 7 1017.2 1016.8 0.0
19/06:30am 11.6 9.4 9.2 85 1.2 S 11 11 6 6 1017.0 1016.6 0.0
19/06:00am 12.0 10.7 9.2 83 1.4 SSE 6 9 3 5 1016.8 1016.4 0.0
19/05:30am 12.2 10.7 9.0 81 1.6 S 7 9 4 5 1016.6 1016.2 0.0
19/05:00am 12.5 10.6 9.1 80 1.7 S 9 11 5 6 1016.4 1016.0 0.0
19/04:30am 12.9 10.7 9.5 80 1.7 S 11 15 6 8 1016.5 1016.1 0.0
19/04:00am 12.5 10.9 8.6 77 1.9 S 7 9 4 5 1016.5 1016.1 0.0
19/03:30am 13.4 11.6 9.3 76 2.1 S 9 11 5 6 1016.7 1016.3 0.0
19/03:00am 14.4 12.3 9.6 73 2.5 SSE 11 15 6 8 1016.7 1016.3 0.0
19/02:30am 15.1 13.4 9.9 71 2.7 SSE 9 15 5 8 1016.9 1016.5 0.0
19/02:00am 15.6 12.9 10.2 70 2.8 SSE 15 22 8 12 1017.0 1016.6 0.0
19/01:30am 16.1 12.5 10.0 67 3.2 SE 19 28 10 15 1017.1 1016.7 0.0
19/01:00am 16.4 12.8 10.0 66 3.4 SE 19 24 10 13 1017.3 1016.9 0.0
19/12:30am 16.6 13.4 10.0 65 3.5 SE 17 24 9 13 1017.4 1017.0 0.0
19/12:00am 16.9 13.4 10.1 64 3.6 SE 19 26 10 14 1017.3 1016.9 0.0
 
Date/Time
CDT
Temp
°C
App
Temp
°C
Dew
Point
°C
Rel
Hum
%
Delta-T
°C
Wind Press
QNH
hPa
Press
MSL
hPa
Rain since
9am
mm
Dir  Spd
km/h
Gust
km/h
Spd
kts
Gust
kts
18/11:30pm 17.2 13.5 9.4 60 4.1 SE 19 26 10 14 1017.4 1017.0 0.0
18/11:00pm 17.4 13.6 9.1 58 4.3 SE 19 26 10 14 1017.3 1016.9 0.0
18/10:30pm 17.8 13.5 9.2 57 4.5 SE 22 33 12 18 1017.2 1016.8 0.0
18/10:00pm 18.6 14.2 9.1 54 5.0 SE 22 33 12 18 1017.1 1016.7 0.0
18/09:30pm 19.4 14.6 8.7 50 5.6 SE 24 35 13 19 1016.7 1016.3 0.0
18/09:00pm 19.7 15.2 8.7 49 5.8 SE 22 35 12 19 1016.5 1016.1 0.0
18/08:30pm 20.2 14.9 8.5 47 6.1 SE 26 39 14 21 1016.1 1015.7 0.0
18/08:00pm 21.1 15.7 8.0 43 6.8 SE 26 37 14 20 1015.7 1015.3 0.0
18/07:30pm 21.5 15.6 7.3 40 7.3 SSE 28 39 15 21 1015.3 1014.9 0.0
18/07:00pm 22.2 16.5 6.8 37 7.9 SSE 26 35 14 19 1014.8 1014.4 0.0
18/06:30pm 22.4 16.5 7.4 38 7.8 SE 28 37 15 20 1014.5 1014.1 0.0
18/06:00pm 23.2 17.2 6.9 35 8.4 SE 28 41 15 22 1014.4 1014.0 0.0
18/05:30pm 24.1 17.7 6.8 33 9.0 SSE 30 39 16 21 1014.7 1014.3 0.0
18/05:00pm 23.7 17.4 5.6 31 9.2 SE 28 39 15 21 1014.3 1013.9 0.0
18/04:30pm 24.5 18.3 6.3 31 9.4 SE 28 43 15 23 1014.6 1014.2 0.0
18/04:00pm 24.5 18.4 6.7 32 9.3 SSE 28 43 15 23 1014.5 1014.1 0.0
18/03:30pm 25.5 19.9 7.1 31 9.7 SE 26 44 14 24 1014.5 1014.1 0.0
18/03:00pm 24.7 18.7 6.9 32 9.3 SSE 28 41 15 22 1014.7 1014.3 0.0
18/02:30pm 24.1 17.1 6.8 33 9.0 SSE 33 46 18 25 1014.7 1014.3 0.0
18/02:14pm 25.0 18.5 6.7 31 9.6 SSE 30 50 16 27 1014.5 1014.1 0.0
18/02:00pm 25.8 19.7 8.3 33 9.4 SSE 30 41 16 22 1014.7 1014.3 0.0
18/01:30pm 26.0 20.2 8.0 32 9.7 SSE 28 39 15 21 1014.9 1014.5 0.0
18/01:00pm 25.9 20.5 8.0 32 9.6 SSE 26 37 14 20 1015.1 1014.7 0.0
18/12:30pm 24.9 19.2 8.4 35 8.9 SE 28 43 15 23 1015.3 1014.9 0.0
18/12:00pm 23.6 18.0 8.8 39 8.0 SE 28 39 15 21 1015.5 1015.1 0.0
18/11:30am 24.0 17.9 9.9 41 7.7 SSE 32 43 17 23 1015.6 1015.2 0.0
18/11:00am 22.5 17.3 10.3 46 6.7 SSE 28 39 15 21 1015.7 1015.3 0.0
18/10:30am 21.6 16.4 10.1 48 6.3 SE 28 37 15 20 1016.2 1015.8 0.0
18/10:00am 21.7 16.4 9.9 47 6.4 SE 28 41 15 22 1016.4 1016.0 0.0
18/09:30am 20.6 16.3 10.7 53 5.4 SE 24 33 13 18 1016.3 1015.9 0.0
18/09:00am 18.2 13.1 10.6 61 4.1 SE 28 39 15 21 1016.2 1015.8 0.0
18/08:30am 17.9 13.9 10.5 62 4.0 SE 22 32 12 17 1016.1 1015.7 0.0
18/08:00am 15.9 12.7 10.0 68 3.1 SSE 17 24 9 13 1015.7 1015.3 0.0
18/07:30am 14.6 12.5 9.8 73 2.5 SSE 11 17 6 9 1015.7 1015.3 0.0
18/07:00am 14.6 12.1 9.8 73 2.5 SSE 13 17 7 9 1015.3 1014.9 0.0
18/06:30am 14.9 12.8 9.9 72 2.6 SE 11 17 6 9 1015.3 1014.9 0.0

Other formats

Comma delimited format used in spreadsheet applications
http://www.bom.gov.au/fwo/IDS60801/IDS60801.95654.axf

JavaScript Object Notation format (JSON) in row-major order
http://www.bom.gov.au/fwo/IDS60801/IDS60801.95654.json

Data quality

Most of these data are generated automatically and are frequently updated. Quality checks on data are not normally performed. It is possible for incorrect values to appear. Refer to information at About Latest Weather Observations and please check the disclaimer before using these data.